sensor_id;sensor_type;location;lat;lon;timestamp;temperature;humidity
5735;DHT22;2892;47.592;7.688;2024-03-23T00:52:18;12.30;99.90
5735;DHT22;2892;47.592;7.688;2024-03-23T00:54:44;12.10;99.90
5735;DHT22;2892;47.592;7.688;2024-03-23T00:57:09;12.10;99.90
5735;DHT22;2892;47.592;7.688;2024-03-23T00:59:34;12.30;99.90
5735;DHT22;2892;47.592;7.688;2024-03-23T01:02:00;12.30;99.90
5735;DHT22;2892;47.592;7.688;2024-03-23T01:04:25;12.40;99.90
5735;DHT22;2892;47.592;7.688;2024-03-23T01:06:51;12.80;99.90
5735;DHT22;2892;47.592;7.688;2024-03-23T01:09:16;12.80;99.90
5735;DHT22;2892;47.592;7.688;2024-03-23T01:11:42;12.90;99.90
5735;DHT22;2892;47.592;7.688;2024-03-23T01:14:07;12.80;99.90
5735;DHT22;2892;47.592;7.688;2024-03-23T01:16:33;13.10;99.90
5735;DHT22;2892;47.592;7.688;2024-03-23T01:18:58;13.00;99.90
5735;DHT22;2892;47.592;7.688;2024-03-23T01:21:24;13.40;99.90
5735;DHT22;2892;47.592;7.688;2024-03-23T01:23:49;13.80;99.90
5735;DHT22;2892;47.592;7.688;2024-03-23T01:26:15;14.10;99.90
5735;DHT22;2892;47.592;7.688;2024-03-23T01:28:40;14.00;99.90
5735;DHT22;2892;47.592;7.688;2024-03-23T01:31:06;14.20;99.90
5735;DHT22;2892;47.592;7.688;2024-03-23T01:33:32;14.30;99.90
5735;DHT22;2892;47.592;7.688;2024-03-23T01:35:57;14.30;99.90
5735;DHT22;2892;47.592;7.688;2024-03-23T01:38:23;14.20;99.90
5735;DHT22;2892;47.592;7.688;2024-03-23T01:40:48;14.30;99.90
5735;DHT22;2892;47.592;7.688;2024-03-23T01:43:14;14.40;99.90
5735;DHT22;2892;47.592;7.688;2024-03-23T01:45:39;14.60;99.90
5735;DHT22;2892;47.592;7.688;2024-03-23T01:48:05;14.70;99.90
5735;DHT22;2892;47.592;7.688;2024-03-23T01:50:31;14.70;99.90
5735;DHT22;2892;47.592;7.688;2024-03-23T01:52:58;14.80;99.90
5735;DHT22;2892;47.592;7.688;2024-03-23T01:55:23;14.80;99.90
5735;DHT22;2892;47.592;7.688;2024-03-23T01:57:48;14.90;99.90
5735;DHT22;2892;47.592;7.688;2024-03-23T02:00:14;14.90;99.90
5735;DHT22;2892;47.592;7.688;2024-03-23T02:02:44;14.90;99.90
5735;DHT22;2892;47.592;7.688;2024-03-23T02:05:10;14.80;99.90
5735;DHT22;2892;47.592;7.688;2024-03-23T02:07:37;14.90;99.90
5735;DHT22;2892;47.592;7.688;2024-03-23T02:10:03;14.90;99.90
5735;DHT22;2892;47.592;7.688;2024-03-23T02:12:28;15.00;99.90
5735;DHT22;2892;47.592;7.688;2024-03-23T02:14:54;14.90;99.90
5735;DHT22;2892;47.592;7.688;2024-03-23T02:17:19;14.80;99.90
5735;DHT22;2892;47.592;7.688;2024-03-23T02:19:45;14.90;99.90
5735;DHT22;2892;47.592;7.688;2024-03-23T02:22:10;14.90;99.90
5735;DHT22;2892;47.592;7.688;2024-03-23T02:24:37;14.90;99.90
5735;DHT22;2892;47.592;7.688;2024-03-23T02:27:03;15.00;99.90
5735;DHT22;2892;47.592;7.688;2024-03-23T02:29:28;14.90;99.90
5735;DHT22;2892;47.592;7.688;2024-03-23T02:31:54;14.90;99.90
5735;DHT22;2892;47.592;7.688;2024-03-23T02:34:19;14.90;99.90
5735;DHT22;2892;47.592;7.688;2024-03-23T02:36:45;14.70;99.90
5735;DHT22;2892;47.592;7.688;2024-03-23T02:39:10;14.70;99.90
5735;DHT22;2892;47.592;7.688;2024-03-23T02:41:36;14.70;99.90
5735;DHT22;2892;47.592;7.688;2024-03-23T02:44:02;14.70;99.90
5735;DHT22;2892;47.592;7.688;2024-03-23T02:46:27;14.70;99.90
5735;DHT22;2892;47.592;7.688;2024-03-23T02:48:53;14.70;99.90
5735;DHT22;2892;47.592;7.688;2024-03-23T02:51:18;14.70;99.90
5735;DHT22;2892;47.592;7.688;2024-03-23T02:53:44;14.80;99.90
5735;DHT22;2892;47.592;7.688;2024-03-23T02:56:09;14.70;99.90
5735;DHT22;2892;47.592;7.688;2024-03-23T02:58:35;14.70;99.90
5735;DHT22;2892;47.592;7.688;2024-03-23T03:01:00;14.60;99.90
5735;DHT22;2892;47.592;7.688;2024-03-23T03:03:26;14.60;99.90
5735;DHT22;2892;47.592;7.688;2024-03-23T03:05:55;14.60;99.90
5735;DHT22;2892;47.592;7.688;2024-03-23T03:08:21;14.70;99.90
5735;DHT22;2892;47.592;7.688;2024-03-23T03:10:47;14.70;99.90
5735;DHT22;2892;47.592;7.688;2024-03-23T03:13:12;14.60;99.90
5735;DHT22;2892;47.592;7.688;2024-03-23T03:15:40;14.70;99.90
5735;DHT22;2892;47.592;7.688;2024-03-23T03:18:06;14.80;99.90
5735;DHT22;2892;47.592;7.688;2024-03-23T03:20:31;14.70;99.90
5735;DHT22;2892;47.592;7.688;2024-03-23T03:22:57;14.70;99.90
5735;DHT22;2892;47.592;7.688;2024-03-23T03:25:22;14.70;99.90
5735;DHT22;2892;47.592;7.688;2024-03-23T03:27:48;14.70;99.90
5735;DHT22;2892;47.592;7.688;2024-03-23T03:30:13;14.30;99.90
5735;DHT22;2892;47.592;7.688;2024-03-23T03:32:39;14.20;99.90
5735;DHT22;2892;47.592;7.688;2024-03-23T03:35:04;14.50;99.90
5735;DHT22;2892;47.592;7.688;2024-03-23T03:37:30;14.30;99.90
5735;DHT22;2892;47.592;7.688;2024-03-23T03:39:56;14.20;99.90
5735;DHT22;2892;47.592;7.688;2024-03-23T03:42:21;14.10;99.90
5735;DHT22;2892;47.592;7.688;2024-03-23T03:44:47;13.60;99.90
5735;DHT22;2892;47.592;7.688;2024-03-23T03:47:12;13.30;99.90
5735;DHT22;2892;47.592;7.688;2024-03-23T03:49:37;13.10;99.90
5735;DHT22;2892;47.592;7.688;2024-03-23T03:52:03;13.10;99.90
5735;DHT22;2892;47.592;7.688;2024-03-23T03:54:29;13.00;99.90
5735;DHT22;2892;47.592;7.688;2024-03-23T03:56:54;13.10;99.90
5735;DHT22;2892;47.592;7.688;2024-03-23T03:59:20;13.10;99.90
5735;DHT22;2892;47.592;7.688;2024-03-23T04:01:45;13.10;99.90
5735;DHT22;2892;47.592;7.688;2024-03-23T04:04:11;13.20;99.90
5735;DHT22;2892;47.592;7.688;2024-03-23T04:06:37;13.30;99.90
5735;DHT22;2892;47.592;7.688;2024-03-23T04:09:02;13.00;99.90
5735;DHT22;2892;47.592;7.688;2024-03-23T04:11:28;13.00;99.90
5735;DHT22;2892;47.592;7.688;2024-03-23T04:13:53;13.10;99.90
5735;DHT22;2892;47.592;7.688;2024-03-23T04:16:27;13.50;99.90
5735;DHT22;2892;47.592;7.688;2024-03-23T04:18:53;13.70;99.90
5735;DHT22;2892;47.592;7.688;2024-03-23T04:21:19;13.00;99.90
5735;DHT22;2892;47.592;7.688;2024-03-23T04:23:45;12.50;99.90
5735;DHT22;2892;47.592;7.688;2024-03-23T04:26:11;12.20;99.90
5735;DHT22;2892;47.592;7.688;2024-03-23T04:28:36;12.10;99.90
5735;DHT22;2892;47.592;7.688;2024-03-23T04:31:05;12.00;99.90
5735;DHT22;2892;47.592;7.688;2024-03-23T04:33:31;12.00;99.90
5735;DHT22;2892;47.592;7.688;2024-03-23T04:35:57;11.90;99.90
5735;DHT22;2892;47.592;7.688;2024-03-23T04:38:22;11.90;99.90
5735;DHT22;2892;47.592;7.688;2024-03-23T04:40:58;11.90;99.90
5735;DHT22;2892;47.592;7.688;2024-03-23T04:43:24;11.90;99.90
5735;DHT22;2892;47.592;7.688;2024-03-23T04:45:50;11.90;99.90
5735;DHT22;2892;47.592;7.688;2024-03-23T04:48:15;12.00;99.90
5735;DHT22;2892;47.592;7.688;2024-03-23T04:50:41;12.00;99.90
5735;DHT22;2892;47.592;7.688;2024-03-23T04:53:07;12.00;99.90
5735;DHT22;2892;47.592;7.688;2024-03-23T04:55:32;12.00;99.90
5735;DHT22;2892;47.592;7.688;2024-03-23T04:57:58;11.90;99.90
5735;DHT22;2892;47.592;7.688;2024-03-23T05:00:23;11.90;99.90
5735;DHT22;2892;47.592;7.688;2024-03-23T05:02:49;11.90;99.90
5735;DHT22;2892;47.592;7.688;2024-03-23T05:05:14;11.90;99.90
5735;DHT22;2892;47.592;7.688;2024-03-23T05:07:40;11.90;99.90
5735;DHT22;2892;47.592;7.688;2024-03-23T05:10:06;11.90;99.90
5735;DHT22;2892;47.592;7.688;2024-03-23T05:12:31;11.80;99.90
5735;DHT22;2892;47.592;7.688;2024-03-23T05:14:57;11.80;99.90
5735;DHT22;2892;47.592;7.688;2024-03-23T05:17:23;11.70;99.90
5735;DHT22;2892;47.592;7.688;2024-03-23T05:19:48;11.70;99.90
5735;DHT22;2892;47.592;7.688;2024-03-23T05:22:14;11.60;99.90
5735;DHT22;2892;47.592;7.688;2024-03-23T05:24:39;11.60;99.90
5735;DHT22;2892;47.592;7.688;2024-03-23T05:27:05;11.60;99.90
5735;DHT22;2892;47.592;7.688;2024-03-23T05:29:30;11.50;99.90
5735;DHT22;2892;47.592;7.688;2024-03-23T05:31:56;11.50;99.90
5735;DHT22;2892;47.592;7.688;2024-03-23T05:34:21;11.50;99.90
5735;DHT22;2892;47.592;7.688;2024-03-23T05:36:47;11.40;99.90
5735;DHT22;2892;47.592;7.688;2024-03-23T05:39:12;11.40;99.90
5735;DHT22;2892;47.592;7.688;2024-03-23T05:41:38;11.40;99.90
5735;DHT22;2892;47.592;7.688;2024-03-23T05:44:03;11.40;99.90
5735;DHT22;2892;47.592;7.688;2024-03-23T05:46:29;11.40;99.90
5735;DHT22;2892;47.592;7.688;2024-03-23T05:49:01;11.50;99.90
5735;DHT22;2892;47.592;7.688;2024-03-23T05:51:27;11.50;99.90
5735;DHT22;2892;47.592;7.688;2024-03-23T05:53:52;11.50;99.90
5735;DHT22;2892;47.592;7.688;2024-03-23T05:56:19;11.40;99.90
5735;DHT22;2892;47.592;7.688;2024-03-23T05:58:45;11.50;99.90
5735;DHT22;2892;47.592;7.688;2024-03-23T06:01:10;11.50;99.90
5735;DHT22;2892;47.592;7.688;2024-03-23T06:03:36;11.40;99.90
5735;DHT22;2892;47.592;7.688;2024-03-23T06:06:01;11.40;99.90
5735;DHT22;2892;47.592;7.688;2024-03-23T06:08:27;11.30;99.90
5735;DHT22;2892;47.592;7.688;2024-03-23T06:10:52;11.30;99.90
5735;DHT22;2892;47.592;7.688;2024-03-23T06:13:18;11.20;99.90
5735;DHT22;2892;47.592;7.688;2024-03-23T06:15:44;11.10;99.90
5735;DHT22;2892;47.592;7.688;2024-03-23T06:18:09;11.10;99.90
5735;DHT22;2892;47.592;7.688;2024-03-23T06:20:35;11.00;99.90
5735;DHT22;2892;47.592;7.688;2024-03-23T06:23:01;11.00;99.90
5735;DHT22;2892;47.592;7.688;2024-03-23T06:25:27;10.90;99.90
5735;DHT22;2892;47.592;7.688;2024-03-23T06:27:52;10.90;99.90
5735;DHT22;2892;47.592;7.688;2024-03-23T06:30:17;10.90;99.90
5735;DHT22;2892;47.592;7.688;2024-03-23T06:32:43;10.80;99.90
5735;DHT22;2892;47.592;7.688;2024-03-23T06:35:08;10.80;99.90
5735;DHT22;2892;47.592;7.688;2024-03-23T06:37:35;10.80;99.90
5735;DHT22;2892;47.592;7.688;2024-03-23T06:40:01;10.80;99.90
5735;DHT22;2892;47.592;7.688;2024-03-23T06:42:27;10.80;99.90
5735;DHT22;2892;47.592;7.688;2024-03-23T06:44:52;10.80;99.90
5735;DHT22;2892;47.592;7.688;2024-03-23T06:47:18;10.80;99.90
5735;DHT22;2892;47.592;7.688;2024-03-23T06:49:43;10.80;99.90
5735;DHT22;2892;47.592;7.688;2024-03-23T06:52:08;10.80;99.90
5735;DHT22;2892;47.592;7.688;2024-03-23T06:54:34;10.80;99.90
5735;DHT22;2892;47.592;7.688;2024-03-23T06:56:59;10.60;99.90
5735;DHT22;2892;47.592;7.688;2024-03-23T06:59:25;10.50;99.90
5735;DHT22;2892;47.592;7.688;2024-03-23T07:01:50;10.20;99.90
5735;DHT22;2892;47.592;7.688;2024-03-23T07:04:16;10.10;99.90
5735;DHT22;2892;47.592;7.688;2024-03-23T07:06:44;9.90;99.90
5735;DHT22;2892;47.592;7.688;2024-03-23T07:09:09;9.90;99.90
5735;DHT22;2892;47.592;7.688;2024-03-23T07:11:35;9.80;99.90
5735;DHT22;2892;47.592;7.688;2024-03-23T07:14:00;9.70;99.90
5735;DHT22;2892;47.592;7.688;2024-03-23T07:16:27;9.60;99.90
5735;DHT22;2892;47.592;7.688;2024-03-23T07:18:52;9.50;99.90
5735;DHT22;2892;47.592;7.688;2024-03-23T07:21:18;9.50;99.90
5735;DHT22;2892;47.592;7.688;2024-03-23T07:23:43;9.40;99.90
5735;DHT22;2892;47.592;7.688;2024-03-23T07:26:09;9.40;99.90
5735;DHT22;2892;47.592;7.688;2024-03-23T07:28:34;9.30;99.90
5735;DHT22;2892;47.592;7.688;2024-03-23T07:31:02;9.30;99.90
5735;DHT22;2892;47.592;7.688;2024-03-23T07:33:28;9.10;99.90
5735;DHT22;2892;47.592;7.688;2024-03-23T07:35:54;8.90;99.90
5735;DHT22;2892;47.592;7.688;2024-03-23T07:38:19;8.90;99.90
5735;DHT22;2892;47.592;7.688;2024-03-23T07:40:45;8.70;99.90
5735;DHT22;2892;47.592;7.688;2024-03-23T07:43:10;8.70;99.90
5735;DHT22;2892;47.592;7.688;2024-03-23T07:45:36;8.70;99.90
5735;DHT22;2892;47.592;7.688;2024-03-23T07:48:01;8.70;99.90
5735;DHT22;2892;47.592;7.688;2024-03-23T07:50:26;8.60;99.90
5735;DHT22;2892;47.592;7.688;2024-03-23T07:52:52;8.60;99.90
5735;DHT22;2892;47.592;7.688;2024-03-23T07:55:17;8.70;99.90
5735;DHT22;2892;47.592;7.688;2024-03-23T07:57:43;8.60;99.90
5735;DHT22;2892;47.592;7.688;2024-03-23T08:00:09;8.60;99.90
5735;DHT22;2892;47.592;7.688;2024-03-23T08:02:34;8.60;99.90
5735;DHT22;2892;47.592;7.688;2024-03-23T08:05:00;8.50;99.90
5735;DHT22;2892;47.592;7.688;2024-03-23T08:07:25;8.50;99.90
5735;DHT22;2892;47.592;7.688;2024-03-23T08:09:51;8.50;99.90
5735;DHT22;2892;47.592;7.688;2024-03-23T08:12:16;8.50;99.90
5735;DHT22;2892;47.592;7.688;2024-03-23T08:14:42;8.50;99.90
5735;DHT22;2892;47.592;7.688;2024-03-23T08:17:08;8.50;99.90
5735;DHT22;2892;47.592;7.688;2024-03-23T08:19:33;8.50;99.90
5735;DHT22;2892;47.592;7.688;2024-03-23T08:21:58;8.50;99.90
5735;DHT22;2892;47.592;7.688;2024-03-23T08:24:24;8.50;99.90
5735;DHT22;2892;47.592;7.688;2024-03-23T08:26:49;8.50;99.90
5735;DHT22;2892;47.592;7.688;2024-03-23T08:29:15;8.50;99.90
5735;DHT22;2892;47.592;7.688;2024-03-23T08:31:40;9.00;99.90
5735;DHT22;2892;47.592;7.688;2024-03-23T08:34:06;9.60;99.90
5735;DHT22;2892;47.592;7.688;2024-03-23T08:36:31;9.80;99.90
5735;DHT22;2892;47.592;7.688;2024-03-23T08:38:57;10.40;99.90
5735;DHT22;2892;47.592;7.688;2024-03-23T08:41:22;10.80;99.90
5735;DHT22;2892;47.592;7.688;2024-03-23T08:43:48;11.10;99.90
5735;DHT22;2892;47.592;7.688;2024-03-23T08:46:15;11.40;99.90
5735;DHT22;2892;47.592;7.688;2024-03-23T08:48:43;11.50;99.90
5735;DHT22;2892;47.592;7.688;2024-03-23T08:51:11;11.50;99.90
5735;DHT22;2892;47.592;7.688;2024-03-23T08:53:37;11.90;99.90
5735;DHT22;2892;47.592;7.688;2024-03-23T08:56:03;11.50;99.90
5735;DHT22;2892;47.592;7.688;2024-03-23T08:58:30;11.30;99.90
5735;DHT22;2892;47.592;7.688;2024-03-23T09:00:57;11.70;99.90
5735;DHT22;2892;47.592;7.688;2024-03-23T09:03:28;11.20;99.90
5735;DHT22;2892;47.592;7.688;2024-03-23T09:05:54;10.90;99.90
5735;DHT22;2892;47.592;7.688;2024-03-23T09:08:19;10.80;99.90
5735;DHT22;2892;47.592;7.688;2024-03-23T09:10:45;10.50;99.90
5735;DHT22;2892;47.592;7.688;2024-03-23T09:13:10;10.10;99.90
5735;DHT22;2892;47.592;7.688;2024-03-23T09:15:37;9.90;99.90
5735;DHT22;2892;47.592;7.688;2024-03-23T09:18:03;9.70;99.90
5735;DHT22;2892;47.592;7.688;2024-03-23T09:20:33;9.60;99.90
5735;DHT22;2892;47.592;7.688;2024-03-23T09:22:58;9.40;99.90
5735;DHT22;2892;47.592;7.688;2024-03-23T09:25:24;9.30;99.90
5735;DHT22;2892;47.592;7.688;2024-03-23T09:27:50;9.20;99.90
5735;DHT22;2892;47.592;7.688;2024-03-23T09:30:16;9.40;99.90
5735;DHT22;2892;47.592;7.688;2024-03-23T09:32:43;9.40;99.90
5735;DHT22;2892;47.592;7.688;2024-03-23T09:35:10;9.50;99.90
5735;DHT22;2892;47.592;7.688;2024-03-23T09:37:35;9.60;99.90
5735;DHT22;2892;47.592;7.688;2024-03-23T09:40:01;9.40;99.90
5735;DHT22;2892;47.592;7.688;2024-03-23T09:42:27;9.40;99.90
5735;DHT22;2892;47.592;7.688;2024-03-23T09:44:53;9.70;99.90
5735;DHT22;2892;47.592;7.688;2024-03-23T09:47:19;10.40;99.90
5735;DHT22;2892;47.592;7.688;2024-03-23T09:49:44;10.70;99.90
5735;DHT22;2892;47.592;7.688;2024-03-23T09:52:10;11.20;99.90
5735;DHT22;2892;47.592;7.688;2024-03-23T09:54:36;11.40;99.90
5735;DHT22;2892;47.592;7.688;2024-03-23T09:57:01;11.80;99.90
5735;DHT22;2892;47.592;7.688;2024-03-23T09:59:27;12.50;99.90
5735;DHT22;2892;47.592;7.688;2024-03-23T10:01:53;13.10;99.90
5735;DHT22;2892;47.592;7.688;2024-03-23T10:04:39;13.50;99.90
5735;DHT22;2892;47.592;7.688;2024-03-23T10:07:21;13.60;99.30
5735;DHT22;2892;47.592;7.688;2024-03-23T10:09:47;13.20;96.40
5735;DHT22;2892;47.592;7.688;2024-03-23T10:12:14;13.40;99.90
5735;DHT22;2892;47.592;7.688;2024-03-23T10:14:41;13.90;99.00
5735;DHT22;2892;47.592;7.688;2024-03-23T10:17:22;13.60;95.40
5735;DHT22;2892;47.592;7.688;2024-03-23T10:19:49;12.80;94.40
5735;DHT22;2892;47.592;7.688;2024-03-23T10:22:18;12.40;94.20
5735;DHT22;2892;47.592;7.688;2024-03-23T10:24:44;12.60;94.20
5735;DHT22;2892;47.592;7.688;2024-03-23T10:27:15;12.80;95.00
5735;DHT22;2892;47.592;7.688;2024-03-23T10:29:41;13.10;96.40
5735;DHT22;2892;47.592;7.688;2024-03-23T10:32:09;13.50;95.60
5735;DHT22;2892;47.592;7.688;2024-03-23T10:34:35;13.50;94.40
5735;DHT22;2892;47.592;7.688;2024-03-23T10:37:02;13.20;94.40
5735;DHT22;2892;47.592;7.688;2024-03-23T10:39:30;12.60;95.00
5735;DHT22;2892;47.592;7.688;2024-03-23T10:41:57;12.50;96.20
5735;DHT22;2892;47.592;7.688;2024-03-23T10:44:24;12.30;97.10
5735;DHT22;2892;47.592;7.688;2024-03-23T10:46:50;11.80;97.00
5735;DHT22;2892;47.592;7.688;2024-03-23T10:49:16;11.50;97.70
5735;DHT22;2892;47.592;7.688;2024-03-23T10:51:41;11.30;99.00
5735;DHT22;2892;47.592;7.688;2024-03-23T10:54:07;11.00;98.70
5735;DHT22;2892;47.592;7.688;2024-03-23T10:56:35;11.20;99.90
5735;DHT22;2892;47.592;7.688;2024-03-23T10:59:02;11.50;99.90
5735;DHT22;2892;47.592;7.688;2024-03-23T11:01:28;11.30;99.90
5735;DHT22;2892;47.592;7.688;2024-03-23T11:03:53;11.10;99.90
5735;DHT22;2892;47.592;7.688;2024-03-23T11:09:01;9.70;99.90
5735;DHT22;2892;47.592;7.688;2024-03-23T11:11:27;8.80;99.90
5735;DHT22;2892;47.592;7.688;2024-03-23T11:13:53;8.10;99.90
5735;DHT22;2892;47.592;7.688;2024-03-23T11:16:24;7.60;99.90
5735;DHT22;2892;47.592;7.688;2024-03-23T11:18:51;7.10;99.90
5735;DHT22;2892;47.592;7.688;2024-03-23T11:21:51;6.80;99.90
5735;DHT22;2892;47.592;7.688;2024-03-23T11:24:17;6.60;99.90
5735;DHT22;2892;47.592;7.688;2024-03-23T11:26:42;6.50;99.90
5735;DHT22;2892;47.592;7.688;2024-03-23T11:29:10;6.70;99.90
5735;DHT22;2892;47.592;7.688;2024-03-23T11:31:37;6.40;99.90
5735;DHT22;2892;47.592;7.688;2024-03-23T11:34:04;6.70;99.90
5735;DHT22;2892;47.592;7.688;2024-03-23T11:36:30;6.70;99.90
5735;DHT22;2892;47.592;7.688;2024-03-23T11:38:55;6.70;99.90
5735;DHT22;2892;47.592;7.688;2024-03-23T11:41:21;6.90;99.90
5735;DHT22;2892;47.592;7.688;2024-03-23T11:43:46;7.20;99.90
5735;DHT22;2892;47.592;7.688;2024-03-23T11:46:22;7.50;99.90
5735;DHT22;2892;47.592;7.688;2024-03-23T11:48:51;8.80;99.90
5735;DHT22;2892;47.592;7.688;2024-03-23T11:51:17;9.40;99.90
5735;DHT22;2892;47.592;7.688;2024-03-23T11:53:42;9.90;99.90
5735;DHT22;2892;47.592;7.688;2024-03-23T11:56:08;10.20;99.90
5735;DHT22;2892;47.592;7.688;2024-03-23T11:58:35;10.40;99.90
5735;DHT22;2892;47.592;7.688;2024-03-23T12:01:02;10.70;99.90
5735;DHT22;2892;47.592;7.688;2024-03-23T12:03:29;10.10;99.90
5735;DHT22;2892;47.592;7.688;2024-03-23T12:05:56;10.80;99.90
5735;DHT22;2892;47.592;7.688;2024-03-23T12:08:23;11.00;99.90
5735;DHT22;2892;47.592;7.688;2024-03-23T12:10:52;11.50;99.90
5735;DHT22;2892;47.592;7.688;2024-03-23T12:13:20;11.30;99.90
5735;DHT22;2892;47.592;7.688;2024-03-23T12:15:49;10.40;99.90
5735;DHT22;2892;47.592;7.688;2024-03-23T12:18:15;10.10;99.90
5735;DHT22;2892;47.592;7.688;2024-03-23T12:20:41;10.80;99.90
5735;DHT22;2892;47.592;7.688;2024-03-23T12:23:08;11.20;99.90
5735;DHT22;2892;47.592;7.688;2024-03-23T12:25:35;11.10;99.90
5735;DHT22;2892;47.592;7.688;2024-03-23T12:28:01;10.80;99.90
5735;DHT22;2892;47.592;7.688;2024-03-23T12:30:26;10.20;99.90
5735;DHT22;2892;47.592;7.688;2024-03-23T12:32:52;10.10;99.90
5735;DHT22;2892;47.592;7.688;2024-03-23T12:35:18;9.80;99.90
5735;DHT22;2892;47.592;7.688;2024-03-23T12:37:44;9.70;99.90
5735;DHT22;2892;47.592;7.688;2024-03-23T12:40:09;10.30;99.90
5735;DHT22;2892;47.592;7.688;2024-03-23T12:42:35;11.10;99.90
5735;DHT22;2892;47.592;7.688;2024-03-23T12:45:01;11.10;99.90
5735;DHT22;2892;47.592;7.688;2024-03-23T12:47:26;11.50;99.90
5735;DHT22;2892;47.592;7.688;2024-03-23T12:49:51;12.00;99.90
5735;DHT22;2892;47.592;7.688;2024-03-23T12:52:17;12.10;99.90
5735;DHT22;2892;47.592;7.688;2024-03-23T12:54:42;11.90;99.90
5735;DHT22;2892;47.592;7.688;2024-03-23T12:57:08;11.30;99.90
5735;DHT22;2892;47.592;7.688;2024-03-23T12:59:34;10.80;99.90
5735;DHT22;2892;47.592;7.688;2024-03-23T13:01:59;10.70;99.90
5735;DHT22;2892;47.592;7.688;2024-03-23T13:04:25;10.50;99.90
5735;DHT22;2892;47.592;7.688;2024-03-23T13:06:50;10.30;99.90
5735;DHT22;2892;47.592;7.688;2024-03-23T13:09:15;10.30;99.90
5735;DHT22;2892;47.592;7.688;2024-03-23T13:11:41;10.30;99.90
5735;DHT22;2892;47.592;7.688;2024-03-23T13:14:06;10.30;99.90
5735;DHT22;2892;47.592;7.688;2024-03-23T13:16:32;10.40;99.90
5735;DHT22;2892;47.592;7.688;2024-03-23T13:18:57;10.70;99.90
5735;DHT22;2892;47.592;7.688;2024-03-23T13:21:23;11.30;99.90
5735;DHT22;2892;47.592;7.688;2024-03-23T13:23:48;11.70;99.70
5735;DHT22;2892;47.592;7.688;2024-03-23T13:26:14;12.00;99.70
5735;DHT22;2892;47.592;7.688;2024-03-23T13:28:39;12.10;94.00
5735;DHT22;2892;47.592;7.688;2024-03-23T13:31:05;11.90;95.00
5735;DHT22;2892;47.592;7.688;2024-03-23T13:33:30;11.80;95.50
5735;DHT22;2892;47.592;7.688;2024-03-23T13:35:56;11.60;95.80
5735;DHT22;2892;47.592;7.688;2024-03-23T13:38:22;11.70;93.60
5735;DHT22;2892;47.592;7.688;2024-03-23T13:40:57;11.50;90.20
5735;DHT22;2892;47.592;7.688;2024-03-23T13:43:24;11.50;92.00
5735;DHT22;2892;47.592;7.688;2024-03-23T13:45:53;11.40;90.60
5735;DHT22;2892;47.592;7.688;2024-03-23T13:48:20;11.70;91.00
5735;DHT22;2892;47.592;7.688;2024-03-23T13:50:46;11.30;88.90
5735;DHT22;2892;47.592;7.688;2024-03-23T13:53:11;11.50;91.70
5735;DHT22;2892;47.592;7.688;2024-03-23T13:55:37;11.60;91.80
5735;DHT22;2892;47.592;7.688;2024-03-23T13:58:02;11.40;91.70
5735;DHT22;2892;47.592;7.688;2024-03-23T14:00:28;11.40;90.60
5735;DHT22;2892;47.592;7.688;2024-03-23T14:02:53;11.40;83.70
5735;DHT22;2892;47.592;7.688;2024-03-23T14:05:19;11.30;84.50
5735;DHT22;2892;47.592;7.688;2024-03-23T14:07:44;11.30;83.20
5735;DHT22;2892;47.592;7.688;2024-03-23T14:10:10;11.40;87.50
5735;DHT22;2892;47.592;7.688;2024-03-23T14:12:35;11.70;86.00
5735;DHT22;2892;47.592;7.688;2024-03-23T14:15:01;11.40;81.90
5735;DHT22;2892;47.592;7.688;2024-03-23T14:17:26;11.10;78.60
5735;DHT22;2892;47.592;7.688;2024-03-23T14:19:52;10.90;82.10
5735;DHT22;2892;47.592;7.688;2024-03-23T14:22:17;10.80;83.40
5735;DHT22;2892;47.592;7.688;2024-03-23T14:24:43;10.80;82.50
5735;DHT22;2892;47.592;7.688;2024-03-23T14:27:08;10.80;88.20
5735;DHT22;2892;47.592;7.688;2024-03-23T14:29:33;11.20;90.60
5735;DHT22;2892;47.592;7.688;2024-03-23T14:31:59;11.30;89.90
5735;DHT22;2892;47.592;7.688;2024-03-23T14:34:26;11.60;90.20
5735;DHT22;2892;47.592;7.688;2024-03-23T14:36:51;11.70;87.10
5735;DHT22;2892;47.592;7.688;2024-03-23T14:39:17;11.50;86.30
5735;DHT22;2892;47.592;7.688;2024-03-23T14:41:42;11.50;82.50
5735;DHT22;2892;47.592;7.688;2024-03-23T14:44:08;11.40;79.10
5735;DHT22;2892;47.592;7.688;2024-03-23T14:46:33;11.20;82.70
5735;DHT22;2892;47.592;7.688;2024-03-23T14:48:59;11.00;83.00
5735;DHT22;2892;47.592;7.688;2024-03-23T14:51:24;10.90;84.60
5735;DHT22;2892;47.592;7.688;2024-03-23T14:53:50;10.70;80.30
5735;DHT22;2892;47.592;7.688;2024-03-23T14:56:15;10.50;86.90
5735;DHT22;2892;47.592;7.688;2024-03-23T14:58:41;10.30;90.60
5735;DHT22;2892;47.592;7.688;2024-03-23T15:01:08;10.20;92.40
5735;DHT22;2892;47.592;7.688;2024-03-23T15:03:33;10.30;95.20
5735;DHT22;2892;47.592;7.688;2024-03-23T15:05:59;10.00;97.80
5735;DHT22;2892;47.592;7.688;2024-03-23T15:08:24;9.80;99.50
5735;DHT22;2892;47.592;7.688;2024-03-23T15:10:50;9.60;99.90
5735;DHT22;2892;47.592;7.688;2024-03-23T15:13:16;9.60;99.90
5735;DHT22;2892;47.592;7.688;2024-03-23T15:15:42;9.50;99.90
5735;DHT22;2892;47.592;7.688;2024-03-23T15:18:08;9.30;99.90
5735;DHT22;2892;47.592;7.688;2024-03-23T15:20:33;9.50;99.90
5735;DHT22;2892;47.592;7.688;2024-03-23T15:22:59;9.70;99.90
5735;DHT22;2892;47.592;7.688;2024-03-23T15:25:24;9.90;99.90
5735;DHT22;2892;47.592;7.688;2024-03-23T15:27:49;9.80;99.90
5735;DHT22;2892;47.592;7.688;2024-03-23T15:30:15;9.80;99.90
5735;DHT22;2892;47.592;7.688;2024-03-23T15:32:40;9.70;99.90
5735;DHT22;2892;47.592;7.688;2024-03-23T15:35:06;9.60;99.90
5735;DHT22;2892;47.592;7.688;2024-03-23T15:37:31;9.70;99.90
5735;DHT22;2892;47.592;7.688;2024-03-23T15:39:57;9.60;99.90
5735;DHT22;2892;47.592;7.688;2024-03-23T15:42:22;9.70;99.90
5735;DHT22;2892;47.592;7.688;2024-03-23T15:44:48;9.70;99.90
5735;DHT22;2892;47.592;7.688;2024-03-23T15:47:13;9.70;99.90
5735;DHT22;2892;47.592;7.688;2024-03-23T15:49:39;9.80;99.90
5735;DHT22;2892;47.592;7.688;2024-03-23T15:52:05;9.80;99.90
5735;DHT22;2892;47.592;7.688;2024-03-23T15:54:30;9.80;99.90
5735;DHT22;2892;47.592;7.688;2024-03-23T15:56:56;9.80;99.90
5735;DHT22;2892;47.592;7.688;2024-03-23T15:59:21;9.80;99.90
5735;DHT22;2892;47.592;7.688;2024-03-23T16:01:46;9.80;99.90
5735;DHT22;2892;47.592;7.688;2024-03-23T16:04:12;9.90;99.90
5735;DHT22;2892;47.592;7.688;2024-03-23T16:06:37;9.90;99.90
5735;DHT22;2892;47.592;7.688;2024-03-23T16:09:03;9.90;99.90
5735;DHT22;2892;47.592;7.688;2024-03-23T16:11:28;9.80;99.90
5735;DHT22;2892;47.592;7.688;2024-03-23T16:13:54;9.70;99.90
5735;DHT22;2892;47.592;7.688;2024-03-23T16:16:19;9.70;99.90
5735;DHT22;2892;47.592;7.688;2024-03-23T16:18:45;9.70;99.90
5735;DHT22;2892;47.592;7.688;2024-03-23T16:21:10;9.60;99.90
5735;DHT22;2892;47.592;7.688;2024-03-23T16:23:36;9.50;99.90
5735;DHT22;2892;47.592;7.688;2024-03-23T16:26:02;9.50;99.90
5735;DHT22;2892;47.592;7.688;2024-03-23T16:28:30;9.50;99.90
5735;DHT22;2892;47.592;7.688;2024-03-23T16:33:24;9.40;99.90
5735;DHT22;2892;47.592;7.688;2024-03-23T16:35:59;9.30;99.90
5735;DHT22;2892;47.592;7.688;2024-03-23T16:38:26;8.90;99.90
5735;DHT22;2892;47.592;7.688;2024-03-23T16:40:57;8.70;99.90
5735;DHT22;2892;47.592;7.688;2024-03-23T16:43:23;8.50;99.90
5735;DHT22;2892;47.592;7.688;2024-03-23T16:45:59;8.30;99.90
5735;DHT22;2892;47.592;7.688;2024-03-23T16:48:26;8.20;99.90
5735;DHT22;2892;47.592;7.688;2024-03-23T16:50:52;8.20;99.90
5735;DHT22;2892;47.592;7.688;2024-03-23T16:53:18;8.10;99.90
5735;DHT22;2892;47.592;7.688;2024-03-23T16:55:44;8.00;99.90